Key Lake Airport
CYKJ : now visible

Airfield :











YOU CAN JOIN US ON...

 
LOGIN :

Register | Disclaimer

   EN    FR    IT 

 









Legend :    VFR   Marginal VFR   IFR   Intensive IFR   Very Intensive IFR
Visi :
Ceiling :
>= 8 km
>= 3000ft
5 to 8 km
1000 to 3000 ft
1500m to 5 km
500 to 1000 ft
800 to 1500m
200 to 500 ft
< 800m
< 200 ft
Symbols :   Thunderstorms  Fog  Heavy snow  Heavy precipitations  Wind > 20 kt






- Airport Elevation : 1679 ft
- IATA code : YKJ


CYKJ - Key Lake

CURRENT METAR :
  • 291353Z AUTO 18004KT 3SM BR OVC003 M12/M14 A2996 RMK VIS VRB 1 1/2-3 SLP191

EXPIRED METARs :
  • 291342Z AUTO 20005KT 2 1/2SM BR OVC003 M12/M14 A2997 RMK SLP194
  • 291338Z AUTO 18004KT 6SM BR OVC003 M12/M14 A2997 RMK SLP194
  • 291328Z AUTO 20005KT 5SM BR OVC003 M12/M14 A2997 RMK SLP194
  • 291313Z AUTO 18003KT 170V240 6SM BR OVC003 M12/M14 A2998 RMK SLP196
  • 291306Z AUTO 22003KT 3SM BR OVC003 M12/M13 A2998 RMK SLP196
  • 291253Z AUTO 23004KT 5SM BR OVC003 M12/M13 A2998 RMK SLP197
  • 291208Z AUTO 23004KT 7SM OVC003 M12/M13 A2998 RMK SLP194
  • 291154Z AUTO 22005KT 5SM BR OVC003 M12/M13 A2997 RMK SLP193
  • 291143Z AUTO 22004KT 7SM OVC003 M12/M13 A2997 RMK SLP193
  • 291131Z AUTO 21005KT 5SM BR OVC003 M12/M13 A2997 RMK SLP193
  • 291118Z AUTO 22004KT 6SM BR OVC003 M11/M13 A2998 RMK SLP194
  • 291101Z AUTO 21006KT 5SM BR OVC003 M12/M13 A2997 RMK SLP192

TAF TAF CYKJ
Valid from the 29 at 13:00 until the 30 at 00:00 UTC


291240Z 2913/2924 24006KT 2SM BR OVC003
TEMPO 2913/2920 6SM BR OVC008
PROB40 2913/2916 1/2SM FZFG OVC002
FM292000 18010KT P6SM BKN006
TEMPO 2920/2924 BKN010 RMK FCST BASED ON AUTO OBS. NXT FCST BY 291900Z



MET'MAP, your aeronautical weather chart ! - Copyright ORBIFLY December 2007 - Disclaimer

ORBIFLY MET'MAP TEAM :

Programming & Development : Alexandra Zaïnal
Concept & original design : Baudouin d'Aumeries
Assistance for programming : Marc-Olivier Méhu
Technical & hardware support : Manuel Goepfert

Contact : metmap@orbifly.com




SOURCES & CREDITS :

   NOAA       Earth
Advisory